sensor_id;sensor_type;location;lat;lon;timestamp;P1;P2;P0
48643;PMS5003;34928;37.302;-121.984;2023-04-10T00:09:46;0;0;
48643;PMS5003;34928;37.302;-121.984;2023-04-10T00:19:51;0;0;
48643;PMS5003;34928;37.302;-121.984;2023-04-10T00:29:56;1;1;
48643;PMS5003;34928;37.302;-121.984;2023-04-10T00:40:07;1;1;
48643;PMS5003;34928;37.302;-121.984;2023-04-10T00:50:11;0;0;
48643;PMS5003;34928;37.302;-121.984;2023-04-10T01:00:16;0;0;
48643;PMS5003;34928;37.302;-121.984;2023-04-10T01:10:25;0;0;
48643;PMS5003;34928;37.302;-121.984;2023-04-10T01:20:37;0;0;
48643;PMS5003;34928;37.302;-121.984;2023-04-10T01:30:47;1;1;
48643;PMS5003;34928;37.302;-121.984;2023-04-10T01:40:56;0;0;
48643;PMS5003;34928;37.302;-121.984;2023-04-10T01:51:02;0;0;
48643;PMS5003;34928;37.302;-121.984;2023-04-10T02:01:17;0;0;
48643;PMS5003;34928;37.302;-121.984;2023-04-10T02:11:24;0;0;
48643;PMS5003;34928;37.302;-121.984;2023-04-10T02:21:37;0;0;
48643;PMS5003;34928;37.302;-121.984;2023-04-10T02:31:41;0;0;
48643;PMS5003;34928;37.302;-121.984;2023-04-10T02:41:47;0;0;
48643;PMS5003;34928;37.302;-121.984;2023-04-10T02:51:51;0;0;
48643;PMS5003;34928;37.302;-121.984;2023-04-10T03:01:56;0;0;
48643;PMS5003;34928;37.302;-121.984;2023-04-10T03:12:01;0;0;
48643;PMS5003;34928;37.302;-121.984;2023-04-10T03:22:06;0;0;
48643;PMS5003;34928;37.302;-121.984;2023-04-10T03:32:11;0;0;
48643;PMS5003;34928;37.302;-121.984;2023-04-10T03:42:16;1;0;
48643;PMS5003;34928;37.302;-121.984;2023-04-10T03:52:21;0;0;
48643;PMS5003;34928;37.302;-121.984;2023-04-10T04:02:26;0;0;
48643;PMS5003;34928;37.302;-121.984;2023-04-10T04:12:31;0;0;
48643;PMS5003;34928;37.302;-121.984;2023-04-10T04:22:36;0;0;
48643;PMS5003;34928;37.302;-121.984;2023-04-10T04:32:41;0;0;
48643;PMS5003;34928;37.302;-121.984;2023-04-10T04:42:46;0;0;
48643;PMS5003;34928;37.302;-121.984;2023-04-10T04:52:51;0;0;
48643;PMS5003;34928;37.302;-121.984;2023-04-10T05:02:56;0;0;
48643;PMS5003;34928;37.302;-121.984;2023-04-10T05:13:01;0;0;
48643;PMS5003;34928;37.302;-121.984;2023-04-10T05:23:07;0;0;
48643;PMS5003;34928;37.302;-121.984;2023-04-10T05:33:11;0;0;
48643;PMS5003;34928;37.302;-121.984;2023-04-10T05:43:16;0;0;
48643;PMS5003;34928;37.302;-121.984;2023-04-10T05:53:26;0;0;
48643;PMS5003;34928;37.302;-121.984;2023-04-10T06:03:32;0;0;
48643;PMS5003;34928;37.302;-121.984;2023-04-10T06:13:36;0;0;
48643;PMS5003;34928;37.302;-121.984;2023-04-10T06:23:41;0;0;
48643;PMS5003;34928;37.302;-121.984;2023-04-10T06:33:46;0;0;
48643;PMS5003;34928;37.302;-121.984;2023-04-10T06:43:51;0;0;
48643;PMS5003;34928;37.302;-121.984;2023-04-10T06:53:56;0;0;
48643;PMS5003;34928;37.302;-121.984;2023-04-10T07:04:02;0;0;
48643;PMS5003;34928;37.302;-121.984;2023-04-10T07:14:06;0;0;
48643;PMS5003;34928;37.302;-121.984;2023-04-10T07:24:12;0;0;
48643;PMS5003;34928;37.302;-121.984;2023-04-10T07:34:16;0;0;
48643;PMS5003;34928;37.302;-121.984;2023-04-10T07:44:21;0;0;
48643;PMS5003;34928;37.302;-121.984;2023-04-10T07:54:26;0;0;
48643;PMS5003;34928;37.302;-121.984;2023-04-10T08:04:31;1;1;
48643;PMS5003;34928;37.302;-121.984;2023-04-10T08:14:36;1;1;
48643;PMS5003;34928;37.302;-121.984;2023-04-10T08:24:41;0;0;
48643;PMS5003;34928;37.302;-121.984;2023-04-10T08:34:46;0;0;
48643;PMS5003;34928;37.302;-121.984;2023-04-10T08:44:51;0;0;
48643;PMS5003;34928;37.302;-121.984;2023-04-10T08:54:56;0;0;
48643;PMS5003;34928;37.302;-121.984;2023-04-10T09:05:08;0;0;
48643;PMS5003;34928;37.302;-121.984;2023-04-10T09:15:16;0;0;
48643;PMS5003;34928;37.302;-121.984;2023-04-10T09:25:29;0;0;
48643;PMS5003;34928;37.302;-121.984;2023-04-10T09:35:37;0;0;
48643;PMS5003;34928;37.302;-121.984;2023-04-10T09:45:45;0;0;
48643;PMS5003;34928;37.302;-121.984;2023-04-10T09:55:51;0;0;
48643;PMS5003;34928;37.302;-121.984;2023-04-10T10:05:56;0;0;
48643;PMS5003;34928;37.302;-121.984;2023-04-10T10:16:03;1;0;
48643;PMS5003;34928;37.302;-121.984;2023-04-10T10:26:11;2;1;
48643;PMS5003;34928;37.302;-121.984;2023-04-10T10:36:16;1;1;
48643;PMS5003;34928;37.302;-121.984;2023-04-10T10:46:31;0;0;
48643;PMS5003;34928;37.302;-121.984;2023-04-10T10:56:41;0;0;
48643;PMS5003;34928;37.302;-121.984;2023-04-10T11:06:48;0;0;
48643;PMS5003;34928;37.302;-121.984;2023-04-10T11:17:02;0;0;
48643;PMS5003;34928;37.302;-121.984;2023-04-10T11:27:06;0;0;
48643;PMS5003;34928;37.302;-121.984;2023-04-10T11:37:15;0;0;
48643;PMS5003;34928;37.302;-121.984;2023-04-10T11:47:26;0;0;
48643;PMS5003;34928;37.302;-121.984;2023-04-10T11:57:33;1;1;
48643;PMS5003;34928;37.302;-121.984;2023-04-10T12:07:36;1;1;
48643;PMS5003;34928;37.302;-121.984;2023-04-10T12:17:41;0;0;
48643;PMS5003;34928;37.302;-121.984;2023-04-10T12:27:47;0;0;
48643;PMS5003;34928;37.302;-121.984;2023-04-10T12:37:52;0;0;
48643;PMS5003;34928;37.302;-121.984;2023-04-10T12:47:56;0;0;
48643;PMS5003;34928;37.302;-121.984;2023-04-10T12:58:14;0;0;
48643;PMS5003;34928;37.302;-121.984;2023-04-10T13:08:21;1;1;
48643;PMS5003;34928;37.302;-121.984;2023-04-10T13:18:26;1;1;
48643;PMS5003;34928;37.302;-121.984;2023-04-10T13:28:31;0;0;
48643;PMS5003;34928;37.302;-121.984;2023-04-10T13:38:36;0;0;
48643;PMS5003;34928;37.302;-121.984;2023-04-10T13:48:41;0;0;
48643;PMS5003;34928;37.302;-121.984;2023-04-10T13:58:47;0;0;
48643;PMS5003;34928;37.302;-121.984;2023-04-10T14:08:51;0;0;
48643;PMS5003;34928;37.302;-121.984;2023-04-10T14:18:56;0;0;
48643;PMS5003;34928;37.302;-121.984;2023-04-10T14:29:01;0;0;
48643;PMS5003;34928;37.302;-121.984;2023-04-10T14:39:06;0;0;
48643;PMS5003;34928;37.302;-121.984;2023-04-10T14:49:12;0;0;
48643;PMS5003;34928;37.302;-121.984;2023-04-10T14:59:16;0;0;
48643;PMS5003;34928;37.302;-121.984;2023-04-10T15:09:21;1;1;
48643;PMS5003;34928;37.302;-121.984;2023-04-10T15:19:27;0;0;
48643;PMS5003;34928;37.302;-121.984;2023-04-10T15:29:35;0;0;
48643;PMS5003;34928;37.302;-121.984;2023-04-10T15:39:41;0;0;
48643;PMS5003;34928;37.302;-121.984;2023-04-10T15:49:46;1;0;
48643;PMS5003;34928;37.302;-121.984;2023-04-10T15:59:51;1;0;
48643;PMS5003;34928;37.302;-121.984;2023-04-10T16:09:56;4;1;
48643;PMS5003;34928;37.302;-121.984;2023-04-10T16:20:03;2;1;
48643;PMS5003;34928;37.302;-121.984;2023-04-10T16:30:07;0;0;
48643;PMS5003;34928;37.302;-121.984;2023-04-10T16:40:11;0;0;
48643;PMS5003;34928;37.302;-121.984;2023-04-10T16:50:16;0;0;
48643;PMS5003;34928;37.302;-121.984;2023-04-10T17:00:21;1;1;
48643;PMS5003;34928;37.302;-121.984;2023-04-10T17:10:26;1;0;
48643;PMS5003;34928;37.302;-121.984;2023-04-10T17:20:34;0;0;
48643;PMS5003;34928;37.302;-121.984;2023-04-10T17:30:37;0;0;
48643;PMS5003;34928;37.302;-121.984;2023-04-10T17:40:41;0;0;
48643;PMS5003;34928;37.302;-121.984;2023-04-10T17:50:46;2;2;
48643;PMS5003;34928;37.302;-121.984;2023-04-10T18:00:51;0;0;
48643;PMS5003;34928;37.302;-121.984;2023-04-10T18:10:56;0;0;
48643;PMS5003;34928;37.302;-121.984;2023-04-10T18:21:01;0;0;
48643;PMS5003;34928;37.302;-121.984;2023-04-10T18:31:06;1;0;
48643;PMS5003;34928;37.302;-121.984;2023-04-10T18:41:11;1;0;
48643;PMS5003;34928;37.302;-121.984;2023-04-10T18:51:16;0;0;
48643;PMS5003;34928;37.302;-121.984;2023-04-10T19:01:21;1;1;
48643;PMS5003;34928;37.302;-121.984;2023-04-10T19:11:26;4;3;
48643;PMS5003;34928;37.302;-121.984;2023-04-10T19:21:31;3;2;
48643;PMS5003;34928;37.302;-121.984;2023-04-10T19:31:36;0;0;
48643;PMS5003;34928;37.302;-121.984;2023-04-10T19:41:41;0;0;
48643;PMS5003;34928;37.302;-121.984;2023-04-10T19:51:46;0;0;
48643;PMS5003;34928;37.302;-121.984;2023-04-10T20:01:51;0;0;
48643;PMS5003;34928;37.302;-121.984;2023-04-10T20:11:56;0;0;
48643;PMS5003;34928;37.302;-121.984;2023-04-10T20:22:01;0;0;
48643;PMS5003;34928;37.302;-121.984;2023-04-10T20:32:06;1;0;
48643;PMS5003;34928;37.302;-121.984;2023-04-10T20:42:11;1;0;
48643;PMS5003;34928;37.302;-121.984;2023-04-10T20:52:16;0;0;
48643;PMS5003;34928;37.302;-121.984;2023-04-10T21:02:21;0;0;
48643;PMS5003;34928;37.302;-121.984;2023-04-10T21:12:26;1;1;
48643;PMS5003;34928;37.302;-121.984;2023-04-10T21:22:31;0;0;
48643;PMS5003;34928;37.302;-121.984;2023-04-10T21:32:36;0;0;
48643;PMS5003;34928;37.302;-121.984;2023-04-10T21:42:42;1;1;
48643;PMS5003;34928;37.302;-121.984;2023-04-10T21:52:46;2;2;
48643;PMS5003;34928;37.302;-121.984;2023-04-10T22:02:51;1;1;
48643;PMS5003;34928;37.302;-121.984;2023-04-10T22:12:56;1;1;
48643;PMS5003;34928;37.302;-121.984;2023-04-10T22:23:01;0;0;
48643;PMS5003;34928;37.302;-121.984;2023-04-10T22:33:06;2;2;
48643;PMS5003;34928;37.302;-121.984;2023-04-10T22:43:11;2;2;
48643;PMS5003;34928;37.302;-121.984;2023-04-10T22:53:16;3;3;
48643;PMS5003;34928;37.302;-121.984;2023-04-10T23:03:21;4;3;
48643;PMS5003;34928;37.302;-121.984;2023-04-10T23:13:26;10;9;
48643;PMS5003;34928;37.302;-121.984;2023-04-10T23:23:31;7;7;
48643;PMS5003;34928;37.302;-121.984;2023-04-10T23:33:36;8;7;
48643;PMS5003;34928;37.302;-121.984;2023-04-10T23:43:41;9;8;
48643;PMS5003;34928;37.302;-121.984;2023-04-10T23:53:46;12;10;
